sensor_id;sensor_type;location;lat;lon;timestamp;P1;durP1;ratioP1;P2;durP2;ratioP2
37459;SDS011;23318;50.966;5.284;2022-10-16T00:01:34;1.63;;;1.00;;
37459;SDS011;23318;50.966;5.284;2022-10-16T00:04:00;3.97;;;0.80;;
37459;SDS011;23318;50.966;5.284;2022-10-16T00:06:27;6.68;;;1.23;;
37459;SDS011;23318;50.966;5.284;2022-10-16T00:08:54;6.18;;;1.70;;
37459;SDS011;23318;50.966;5.284;2022-10-16T00:11:28;5.50;;;1.38;;
37459;SDS011;23318;50.966;5.284;2022-10-16T00:13:58;2.30;;;1.00;;
37459;SDS011;23318;50.966;5.284;2022-10-16T00:16:25;9.23;;;1.15;;
37459;SDS011;23318;50.966;5.284;2022-10-16T00:18:52;3.00;;;0.80;;
37459;SDS011;23318;50.966;5.284;2022-10-16T00:21:19;2.13;;;0.70;;
37459;SDS011;23318;50.966;5.284;2022-10-16T00:23:46;3.38;;;0.68;;
37459;SDS011;23318;50.966;5.284;2022-10-16T00:26:16;2.17;;;0.90;;
37459;SDS011;23318;50.966;5.284;2022-10-16T00:28:44;1.30;;;0.85;;
37459;SDS011;23318;50.966;5.284;2022-10-16T00:31:11;2.20;;;0.75;;
37459;SDS011;23318;50.966;5.284;2022-10-16T00:33:38;3.50;;;1.20;;
37459;SDS011;23318;50.966;5.284;2022-10-16T00:36:04;1.40;;;0.98;;
37459;SDS011;23318;50.966;5.284;2022-10-16T00:38:31;2.75;;;0.70;;
37459;SDS011;23318;50.966;5.284;2022-10-16T00:40:57;2.85;;;1.00;;
37459;SDS011;23318;50.966;5.284;2022-10-16T00:43:40;2.22;;;1.02;;
37459;SDS011;23318;50.966;5.284;2022-10-16T00:46:13;2.53;;;0.82;;
37459;SDS011;23318;50.966;5.284;2022-10-16T00:48:45;1.00;;;0.80;;
37459;SDS011;23318;50.966;5.284;2022-10-16T00:51:15;4.40;;;0.82;;
37459;SDS011;23318;50.966;5.284;2022-10-16T00:53:42;1.92;;;0.80;;
37459;SDS011;23318;50.966;5.284;2022-10-16T00:56:09;3.90;;;1.23;;
37459;SDS011;23318;50.966;5.284;2022-10-16T00:58:34;3.38;;;1.05;;
37459;SDS011;23318;50.966;5.284;2022-10-16T01:01:00;2.33;;;0.77;;
37459;SDS011;23318;50.966;5.284;2022-10-16T01:05:59;1.50;;;1.00;;
37459;SDS011;23318;50.966;5.284;2022-10-16T01:08:39;6.38;;;0.70;;
37459;SDS011;23318;50.966;5.284;2022-10-16T01:11:20;6.47;;;0.75;;
37459;SDS011;23318;50.966;5.284;2022-10-16T01:13:53;4.20;;;1.05;;
37459;SDS011;23318;50.966;5.284;2022-10-16T01:16:28;4.65;;;1.27;;
37459;SDS011;23318;50.966;5.284;2022-10-16T01:19:38;2.92;;;1.23;;
37459;SDS011;23318;50.966;5.284;2022-10-16T01:22:18;2.88;;;0.88;;
37459;SDS011;23318;50.966;5.284;2022-10-16T01:24:49;4.88;;;1.20;;
37459;SDS011;23318;50.966;5.284;2022-10-16T01:27:17;1.20;;;0.80;;
37459;SDS011;23318;50.966;5.284;2022-10-16T01:32:32;3.25;;;0.90;;
37459;SDS011;23318;50.966;5.284;2022-10-16T01:35:00;3.10;;;1.05;;
37459;SDS011;23318;50.966;5.284;2022-10-16T01:40:28;1.08;;;0.82;;
37459;SDS011;23318;50.966;5.284;2022-10-16T01:43:03;1.40;;;0.80;;
37459;SDS011;23318;50.966;5.284;2022-10-16T01:45:36;2.38;;;0.73;;
37459;SDS011;23318;50.966;5.284;2022-10-16T01:48:02;1.95;;;0.80;;
37459;SDS011;23318;50.966;5.284;2022-10-16T01:50:33;3.17;;;1.00;;
37459;SDS011;23318;50.966;5.284;2022-10-16T01:53:04;3.10;;;0.80;;
37459;SDS011;23318;50.966;5.284;2022-10-16T01:55:33;3.45;;;1.05;;
37459;SDS011;23318;50.966;5.284;2022-10-16T01:58:02;2.72;;;0.80;;
37459;SDS011;23318;50.966;5.284;2022-10-16T02:00:30;3.70;;;0.70;;
37459;SDS011;23318;50.966;5.284;2022-10-16T02:02:56;4.25;;;1.02;;
37459;SDS011;23318;50.966;5.284;2022-10-16T02:05:28;1.48;;;0.60;;
37459;SDS011;23318;50.966;5.284;2022-10-16T02:08:07;3.70;;;0.77;;
37459;SDS011;23318;50.966;5.284;2022-10-16T02:10:34;3.65;;;0.82;;
37459;SDS011;23318;50.966;5.284;2022-10-16T02:13:12;3.03;;;0.88;;
37459;SDS011;23318;50.966;5.284;2022-10-16T02:15:47;3.60;;;0.80;;
37459;SDS011;23318;50.966;5.284;2022-10-16T02:18:13;4.95;;;1.20;;
37459;SDS011;23318;50.966;5.284;2022-10-16T02:20:45;4.00;;;1.00;;
37459;SDS011;23318;50.966;5.284;2022-10-16T02:23:34;4.75;;;1.05;;
37459;SDS011;23318;50.966;5.284;2022-10-16T02:27:06;4.20;;;0.90;;
37459;SDS011;23318;50.966;5.284;2022-10-16T02:29:14;3.70;;;0.80;;
37459;SDS011;23318;50.966;5.284;2022-10-16T02:31:46;4.28;;;0.93;;
37459;SDS011;23318;50.966;5.284;2022-10-16T02:34:16;1.73;;;0.82;;
37459;SDS011;23318;50.966;5.284;2022-10-16T02:36:45;2.08;;;0.88;;
37459;SDS011;23318;50.966;5.284;2022-10-16T02:39:12;1.67;;;0.80;;
37459;SDS011;23318;50.966;5.284;2022-10-16T02:41:39;3.92;;;0.75;;
37459;SDS011;23318;50.966;5.284;2022-10-16T02:44:04;3.58;;;1.25;;
37459;SDS011;23318;50.966;5.284;2022-10-16T02:46:30;3.10;;;0.80;;
37459;SDS011;23318;50.966;5.284;2022-10-16T02:48:56;4.22;;;1.00;;
37459;SDS011;23318;50.966;5.284;2022-10-16T02:51:21;5.80;;;1.10;;
37459;SDS011;23318;50.966;5.284;2022-10-16T02:53:47;2.30;;;1.13;;
37459;SDS011;23318;50.966;5.284;2022-10-16T02:56:13;1.67;;;0.90;;
37459;SDS011;23318;50.966;5.284;2022-10-16T02:58:38;2.83;;;1.35;;
37459;SDS011;23318;50.966;5.284;2022-10-16T03:01:04;3.33;;;0.90;;
37459;SDS011;23318;50.966;5.284;2022-10-16T03:03:30;5.88;;;1.02;;
37459;SDS011;23318;50.966;5.284;2022-10-16T03:05:55;1.98;;;0.93;;
37459;SDS011;23318;50.966;5.284;2022-10-16T03:08:21;2.65;;;1.25;;
37459;SDS011;23318;50.966;5.284;2022-10-16T03:10:49;3.85;;;1.13;;
37459;SDS011;23318;50.966;5.284;2022-10-16T03:13:15;2.55;;;0.88;;
37459;SDS011;23318;50.966;5.284;2022-10-16T03:15:40;2.05;;;1.08;;
37459;SDS011;23318;50.966;5.284;2022-10-16T03:18:06;1.33;;;0.90;;
37459;SDS011;23318;50.966;5.284;2022-10-16T03:20:32;3.42;;;1.00;;
37459;SDS011;23318;50.966;5.284;2022-10-16T03:22:57;5.88;;;1.10;;
37459;SDS011;23318;50.966;5.284;2022-10-16T03:25:23;1.77;;;1.10;;
37459;SDS011;23318;50.966;5.284;2022-10-16T03:27:49;3.42;;;1.27;;
37459;SDS011;23318;50.966;5.284;2022-10-16T03:30:15;4.43;;;1.15;;
37459;SDS011;23318;50.966;5.284;2022-10-16T03:32:41;3.75;;;1.38;;
37459;SDS011;23318;50.966;5.284;2022-10-16T03:35:08;2.05;;;1.00;;
37459;SDS011;23318;50.966;5.284;2022-10-16T03:37:34;2.20;;;1.08;;
37459;SDS011;23318;50.966;5.284;2022-10-16T03:40:00;1.75;;;1.05;;
37459;SDS011;23318;50.966;5.284;2022-10-16T03:42:26;4.95;;;1.13;;
37459;SDS011;23318;50.966;5.284;2022-10-16T03:44:52;7.85;;;1.30;;
37459;SDS011;23318;50.966;5.284;2022-10-16T03:47:17;2.05;;;1.10;;
37459;SDS011;23318;50.966;5.284;2022-10-16T03:49:46;1.23;;;1.10;;
37459;SDS011;23318;50.966;5.284;2022-10-16T03:52:12;3.30;;;1.10;;
37459;SDS011;23318;50.966;5.284;2022-10-16T03:54:38;3.78;;;1.25;;
37459;SDS011;23318;50.966;5.284;2022-10-16T03:57:04;4.80;;;0.93;;
37459;SDS011;23318;50.966;5.284;2022-10-16T03:59:30;4.47;;;1.30;;
37459;SDS011;23318;50.966;5.284;2022-10-16T04:01:55;3.67;;;1.00;;
37459;SDS011;23318;50.966;5.284;2022-10-16T04:04:21;3.35;;;1.65;;
37459;SDS011;23318;50.966;5.284;2022-10-16T04:06:46;3.38;;;1.25;;
37459;SDS011;23318;50.966;5.284;2022-10-16T04:09:12;2.13;;;0.90;;
37459;SDS011;23318;50.966;5.284;2022-10-16T04:11:38;2.78;;;1.08;;
37459;SDS011;23318;50.966;5.284;2022-10-16T04:14:04;4.57;;;1.17;;
37459;SDS011;23318;50.966;5.284;2022-10-16T04:16:29;2.90;;;1.20;;
37459;SDS011;23318;50.966;5.284;2022-10-16T04:18:55;8.07;;;1.75;;
37459;SDS011;23318;50.966;5.284;2022-10-16T04:21:20;2.05;;;1.02;;
37459;SDS011;23318;50.966;5.284;2022-10-16T04:23:47;5.72;;;1.17;;
37459;SDS011;23318;50.966;5.284;2022-10-16T04:26:13;4.20;;;1.20;;
37459;SDS011;23318;50.966;5.284;2022-10-16T04:28:39;4.93;;;1.40;;
37459;SDS011;23318;50.966;5.284;2022-10-16T04:31:05;5.20;;;1.42;;
37459;SDS011;23318;50.966;5.284;2022-10-16T04:33:31;3.80;;;1.48;;
37459;SDS011;23318;50.966;5.284;2022-10-16T04:35:58;3.08;;;1.27;;
37459;SDS011;23318;50.966;5.284;2022-10-16T04:38:24;4.63;;;1.20;;
37459;SDS011;23318;50.966;5.284;2022-10-16T04:40:50;2.45;;;1.35;;
37459;SDS011;23318;50.966;5.284;2022-10-16T04:43:16;6.22;;;1.50;;
37459;SDS011;23318;50.966;5.284;2022-10-16T04:45:42;2.45;;;1.60;;
37459;SDS011;23318;50.966;5.284;2022-10-16T04:48:08;3.13;;;1.50;;
37459;SDS011;23318;50.966;5.284;2022-10-16T04:50:34;4.78;;;1.88;;
37459;SDS011;23318;50.966;5.284;2022-10-16T04:53:00;8.15;;;2.05;;
37459;SDS011;23318;50.966;5.284;2022-10-16T04:55:25;2.95;;;1.80;;
37459;SDS011;23318;50.966;5.284;2022-10-16T04:57:51;3.72;;;1.67;;
37459;SDS011;23318;50.966;5.284;2022-10-16T05:00:17;8.38;;;1.52;;
37459;SDS011;23318;50.966;5.284;2022-10-16T05:02:42;7.10;;;1.85;;
37459;SDS011;23318;50.966;5.284;2022-10-16T05:05:08;5.50;;;1.90;;
37459;SDS011;23318;50.966;5.284;2022-10-16T05:07:34;4.35;;;1.60;;
37459;SDS011;23318;50.966;5.284;2022-10-16T05:09:59;3.33;;;1.90;;
37459;SDS011;23318;50.966;5.284;2022-10-16T05:12:25;4.97;;;1.70;;
37459;SDS011;23318;50.966;5.284;2022-10-16T05:14:51;6.53;;;1.92;;
37459;SDS011;23318;50.966;5.284;2022-10-16T05:17:17;4.57;;;1.65;;
37459;SDS011;23318;50.966;5.284;2022-10-16T05:19:42;7.32;;;2.45;;
37459;SDS011;23318;50.966;5.284;2022-10-16T05:22:08;3.42;;;1.55;;
37459;SDS011;23318;50.966;5.284;2022-10-16T05:24:34;4.97;;;1.75;;
37459;SDS011;23318;50.966;5.284;2022-10-16T05:26:59;5.40;;;1.88;;
37459;SDS011;23318;50.966;5.284;2022-10-16T05:29:25;4.18;;;1.80;;
37459;SDS011;23318;50.966;5.284;2022-10-16T05:31:54;2.95;;;2.00;;
37459;SDS011;23318;50.966;5.284;2022-10-16T05:34:19;2.88;;;1.77;;
37459;SDS011;23318;50.966;5.284;2022-10-16T05:36:45;8.55;;;2.10;;
37459;SDS011;23318;50.966;5.284;2022-10-16T05:39:11;3.33;;;1.40;;
37459;SDS011;23318;50.966;5.284;2022-10-16T05:41:39;4.30;;;1.98;;
37459;SDS011;23318;50.966;5.284;2022-10-16T05:44:04;6.43;;;1.50;;
37459;SDS011;23318;50.966;5.284;2022-10-16T05:46:31;4.50;;;1.75;;
37459;SDS011;23318;50.966;5.284;2022-10-16T05:48:57;3.08;;;1.90;;
37459;SDS011;23318;50.966;5.284;2022-10-16T05:51:23;5.15;;;2.00;;
37459;SDS011;23318;50.966;5.284;2022-10-16T05:53:48;3.40;;;2.08;;
37459;SDS011;23318;50.966;5.284;2022-10-16T05:56:14;6.00;;;2.17;;
37459;SDS011;23318;50.966;5.284;2022-10-16T05:58:40;11.45;;;2.33;;
37459;SDS011;23318;50.966;5.284;2022-10-16T06:01:08;6.88;;;2.58;;
37459;SDS011;23318;50.966;5.284;2022-10-16T06:03:39;3.15;;;2.17;;
37459;SDS011;23318;50.966;5.284;2022-10-16T06:06:15;6.22;;;2.30;;
37459;SDS011;23318;50.966;5.284;2022-10-16T06:08:42;6.05;;;2.50;;
37459;SDS011;23318;50.966;5.284;2022-10-16T06:11:11;3.13;;;2.25;;
37459;SDS011;23318;50.966;5.284;2022-10-16T06:13:38;5.45;;;2.50;;
37459;SDS011;23318;50.966;5.284;2022-10-16T06:16:06;2.85;;;2.15;;
37459;SDS011;23318;50.966;5.284;2022-10-16T06:18:32;3.72;;;2.00;;
37459;SDS011;23318;50.966;5.284;2022-10-16T06:20:58;8.40;;;2.88;;
37459;SDS011;23318;50.966;5.284;2022-10-16T06:23:24;6.38;;;2.45;;
37459;SDS011;23318;50.966;5.284;2022-10-16T06:25:50;3.78;;;2.72;;
37459;SDS011;23318;50.966;5.284;2022-10-16T06:28:16;4.43;;;2.05;;
37459;SDS011;23318;50.966;5.284;2022-10-16T06:30:42;6.60;;;2.13;;
37459;SDS011;23318;50.966;5.284;2022-10-16T06:33:11;5.63;;;2.15;;
37459;SDS011;23318;50.966;5.284;2022-10-16T06:35:37;4.75;;;2.45;;
37459;SDS011;23318;50.966;5.284;2022-10-16T06:38:03;4.10;;;2.08;;
37459;SDS011;23318;50.966;5.284;2022-10-16T06:40:29;3.25;;;2.17;;
37459;SDS011;23318;50.966;5.284;2022-10-16T06:42:55;3.85;;;2.40;;
37459;SDS011;23318;50.966;5.284;2022-10-16T06:45:20;4.45;;;2.00;;
37459;SDS011;23318;50.966;5.284;2022-10-16T06:47:46;7.05;;;2.30;;
37459;SDS011;23318;50.966;5.284;2022-10-16T06:50:12;5.75;;;1.63;;
37459;SDS011;23318;50.966;5.284;2022-10-16T06:52:37;3.33;;;1.75;;
37459;SDS011;23318;50.966;5.284;2022-10-16T06:55:03;5.10;;;2.13;;
37459;SDS011;23318;50.966;5.284;2022-10-16T06:57:29;7.05;;;2.30;;
37459;SDS011;23318;50.966;5.284;2022-10-16T06:59:54;7.30;;;2.28;;
37459;SDS011;23318;50.966;5.284;2022-10-16T07:02:20;5.57;;;2.42;;
37459;SDS011;23318;50.966;5.284;2022-10-16T07:04:46;6.60;;;2.45;;
37459;SDS011;23318;50.966;5.284;2022-10-16T07:07:12;4.32;;;1.75;;
37459;SDS011;23318;50.966;5.284;2022-10-16T07:09:38;4.53;;;1.83;;
37459;SDS011;23318;50.966;5.284;2022-10-16T07:12:05;3.80;;;1.63;;
37459;SDS011;23318;50.966;5.284;2022-10-16T07:14:30;3.08;;;1.67;;
37459;SDS011;23318;50.966;5.284;2022-10-16T07:16:56;11.68;;;2.00;;
37459;SDS011;23318;50.966;5.284;2022-10-16T07:19:21;4.93;;;2.08;;
37459;SDS011;23318;50.966;5.284;2022-10-16T07:21:47;3.72;;;1.60;;
37459;SDS011;23318;50.966;5.284;2022-10-16T07:24:14;3.22;;;1.40;;
37459;SDS011;23318;50.966;5.284;2022-10-16T07:26:41;4.07;;;1.80;;
37459;SDS011;23318;50.966;5.284;2022-10-16T07:29:15;5.20;;;1.52;;
37459;SDS011;23318;50.966;5.284;2022-10-16T07:31:45;6.15;;;1.55;;
37459;SDS011;23318;50.966;5.284;2022-10-16T07:34:12;7.18;;;1.52;;
37459;SDS011;23318;50.966;5.284;2022-10-16T07:36:38;1.80;;;1.67;;
37459;SDS011;23318;50.966;5.284;2022-10-16T07:39:04;3.20;;;1.60;;
37459;SDS011;23318;50.966;5.284;2022-10-16T07:41:30;4.50;;;1.52;;
37459;SDS011;23318;50.966;5.284;2022-10-16T07:43:58;7.65;;;1.73;;
37459;SDS011;23318;50.966;5.284;2022-10-16T07:46:25;3.90;;;1.35;;
37459;SDS011;23318;50.966;5.284;2022-10-16T07:48:51;2.60;;;1.35;;
37459;SDS011;23318;50.966;5.284;2022-10-16T07:51:19;7.38;;;1.90;;
37459;SDS011;23318;50.966;5.284;2022-10-16T07:53:46;6.03;;;1.70;;
37459;SDS011;23318;50.966;5.284;2022-10-16T07:56:12;2.33;;;1.77;;
37459;SDS011;23318;50.966;5.284;2022-10-16T07:58:38;4.65;;;1.55;;
37459;SDS011;23318;50.966;5.284;2022-10-16T08:01:05;3.95;;;2.10;;
37459;SDS011;23318;50.966;5.284;2022-10-16T08:03:32;2.95;;;1.77;;
37459;SDS011;23318;50.966;5.284;2022-10-16T08:05:58;6.28;;;2.65;;
37459;SDS011;23318;50.966;5.284;2022-10-16T08:08:24;4.75;;;1.38;;
37459;SDS011;23318;50.966;5.284;2022-10-16T08:10:50;5.65;;;1.65;;
37459;SDS011;23318;50.966;5.284;2022-10-16T08:13:16;4.22;;;1.58;;
37459;SDS011;23318;50.966;5.284;2022-10-16T08:15:42;4.47;;;1.55;;
37459;SDS011;23318;50.966;5.284;2022-10-16T08:18:09;2.25;;;1.50;;
37459;SDS011;23318;50.966;5.284;2022-10-16T08:20:35;3.95;;;1.70;;
37459;SDS011;23318;50.966;5.284;2022-10-16T08:23:01;5.95;;;1.48;;
37459;SDS011;23318;50.966;5.284;2022-10-16T08:25:27;3.88;;;1.60;;
37459;SDS011;23318;50.966;5.284;2022-10-16T08:27:53;6.82;;;1.63;;
37459;SDS011;23318;50.966;5.284;2022-10-16T08:30:19;5.88;;;1.40;;
37459;SDS011;23318;50.966;5.284;2022-10-16T08:32:46;6.80;;;1.35;;
37459;SDS011;23318;50.966;5.284;2022-10-16T08:35:12;2.95;;;1.30;;
37459;SDS011;23318;50.966;5.284;2022-10-16T08:37:39;3.35;;;1.63;;
37459;SDS011;23318;50.966;5.284;2022-10-16T08:40:05;4.25;;;1.20;;
37459;SDS011;23318;50.966;5.284;2022-10-16T08:42:52;4.35;;;1.48;;
37459;SDS011;23318;50.966;5.284;2022-10-16T08:45:38;4.43;;;1.10;;
37459;SDS011;23318;50.966;5.284;2022-10-16T08:50:54;2.60;;;1.23;;
37459;SDS011;23318;50.966;5.284;2022-10-16T08:53:28;4.07;;;1.17;;
37459;SDS011;23318;50.966;5.284;2022-10-16T08:55:58;2.85;;;1.20;;
37459;SDS011;23318;50.966;5.284;2022-10-16T08:58:28;6.30;;;1.27;;
37459;SDS011;23318;50.966;5.284;2022-10-16T09:01:00;6.35;;;1.35;;
37459;SDS011;23318;50.966;5.284;2022-10-16T09:06:44;5.47;;;1.30;;
37459;SDS011;23318;50.966;5.284;2022-10-16T09:09:42;2.88;;;1.35;;
37459;SDS011;23318;50.966;5.284;2022-10-16T09:12:24;7.97;;;2.38;;
37459;SDS011;23318;50.966;5.284;2022-10-16T09:23:48;4.63;;;1.17;;
37459;SDS011;23318;50.966;5.284;2022-10-16T09:26:09;4.10;;;1.00;;
37459;SDS011;23318;50.966;5.284;2022-10-16T09:28:38;9.73;;;1.60;;
37459;SDS011;23318;50.966;5.284;2022-10-16T09:31:04;3.78;;;1.25;;
37459;SDS011;23318;50.966;5.284;2022-10-16T09:33:34;7.15;;;1.25;;
37459;SDS011;23318;50.966;5.284;2022-10-16T09:36:03;2.70;;;1.05;;
37459;SDS011;23318;50.966;5.284;2022-10-16T09:38:32;2.25;;;1.10;;
37459;SDS011;23318;50.966;5.284;2022-10-16T09:41:01;4.45;;;1.50;;
37459;SDS011;23318;50.966;5.284;2022-10-16T09:46:06;4.03;;;1.17;;
37459;SDS011;23318;50.966;5.284;2022-10-16T09:48:38;9.00;;;1.10;;
37459;SDS011;23318;50.966;5.284;2022-10-16T09:51:23;5.43;;;1.40;;
37459;SDS011;23318;50.966;5.284;2022-10-16T09:53:58;5.20;;;1.33;;
37459;SDS011;23318;50.966;5.284;2022-10-16T09:56:33;3.85;;;1.20;;
37459;SDS011;23318;50.966;5.284;2022-10-16T09:59:02;3.03;;;1.00;;
37459;SDS011;23318;50.966;5.284;2022-10-16T10:04:41;6.45;;;1.10;;
37459;SDS011;23318;50.966;5.284;2022-10-16T10:09:52;4.95;;;1.17;;
37459;SDS011;23318;50.966;5.284;2022-10-16T10:12:20;3.95;;;1.15;;
37459;SDS011;23318;50.966;5.284;2022-10-16T10:14:52;4.10;;;1.10;;
37459;SDS011;23318;50.966;5.284;2022-10-16T10:17:23;5.18;;;1.10;;
37459;SDS011;23318;50.966;5.284;2022-10-16T10:20:00;4.82;;;1.23;;
37459;SDS011;23318;50.966;5.284;2022-10-16T10:22:44;4.10;;;0.95;;
37459;SDS011;23318;50.966;5.284;2022-10-16T10:38:30;3.72;;;1.40;;
37459;SDS011;23318;50.966;5.284;2022-10-16T10:41:19;4.00;;;1.23;;
37459;SDS011;23318;50.966;5.284;2022-10-16T10:47:00;5.47;;;1.10;;
37459;SDS011;23318;50.966;5.284;2022-10-16T10:52:30;6.85;;;1.20;;
37459;SDS011;23318;50.966;5.284;2022-10-16T10:57:34;2.20;;;1.05;;
37459;SDS011;23318;50.966;5.284;2022-10-16T11:00:15;7.82;;;1.10;;
37459;SDS011;23318;50.966;5.284;2022-10-16T11:03:23;3.85;;;0.70;;
37459;SDS011;23318;50.966;5.284;2022-10-16T11:09:10;9.35;;;1.60;;
37459;SDS011;23318;50.966;5.284;2022-10-16T11:11:41;4.90;;;0.90;;
37459;SDS011;23318;50.966;5.284;2022-10-16T11:14:16;4.85;;;1.20;;
37459;SDS011;23318;50.966;5.284;2022-10-16T11:16:51;3.35;;;0.95;;
37459;SDS011;23318;50.966;5.284;2022-10-16T11:19:39;4.55;;;0.90;;
37459;SDS011;23318;50.966;5.284;2022-10-16T11:25:06;3.17;;;0.90;;
37459;SDS011;23318;50.966;5.284;2022-10-16T11:27:41;2.42;;;1.05;;
37459;SDS011;23318;50.966;5.284;2022-10-16T11:30:27;3.10;;;1.23;;
37459;SDS011;23318;50.966;5.284;2022-10-16T11:37:59;1.83;;;0.80;;
37459;SDS011;23318;50.966;5.284;2022-10-16T11:40:32;1.65;;;0.80;;
37459;SDS011;23318;50.966;5.284;2022-10-16T11:45:51;4.30;;;0.80;;
37459;SDS011;23318;50.966;5.284;2022-10-16T11:48:25;3.13;;;0.95;;
37459;SDS011;23318;50.966;5.284;2022-10-16T11:51:43;2.28;;;0.70;;
37459;SDS011;23318;50.966;5.284;2022-10-16T11:56:40;3.15;;;0.90;;
37459;SDS011;23318;50.966;5.284;2022-10-16T12:04:41;4.07;;;0.95;;
37459;SDS011;23318;50.966;5.284;2022-10-16T12:07:18;3.45;;;1.02;;
37459;SDS011;23318;50.966;5.284;2022-10-16T12:10:17;3.08;;;0.90;;
37459;SDS011;23318;50.966;5.284;2022-10-16T12:12:48;4.60;;;0.95;;
37459;SDS011;23318;50.966;5.284;2022-10-16T12:15:30;2.63;;;0.70;;
37459;SDS011;23318;50.966;5.284;2022-10-16T12:17:58;3.30;;;0.82;;
37459;SDS011;23318;50.966;5.284;2022-10-16T12:20:28;6.45;;;1.33;;
37459;SDS011;23318;50.966;5.284;2022-10-16T12:23:00;3.42;;;0.98;;
37459;SDS011;23318;50.966;5.284;2022-10-16T12:30:41;3.20;;;0.55;;
37459;SDS011;23318;50.966;5.284;2022-10-16T12:36:15;3.85;;;1.00;;
37459;SDS011;23318;50.966;5.284;2022-10-16T12:38:55;3.40;;;0.75;;
37459;SDS011;23318;50.966;5.284;2022-10-16T12:41:34;3.10;;;0.82;;
37459;SDS011;23318;50.966;5.284;2022-10-16T12:44:04;2.97;;;0.60;;
37459;SDS011;23318;50.966;5.284;2022-10-16T12:46:46;5.30;;;1.35;;
37459;SDS011;23318;50.966;5.284;2022-10-16T12:51:37;2.45;;;0.80;;
37459;SDS011;23318;50.966;5.284;2022-10-16T12:54:04;6.15;;;0.80;;
37459;SDS011;23318;50.966;5.284;2022-10-16T12:56:48;3.47;;;0.70;;
37459;SDS011;23318;50.966;5.284;2022-10-16T12:59:43;3.40;;;1.13;;
37459;SDS011;23318;50.966;5.284;2022-10-16T13:11:03;1.65;;;0.65;;
37459;SDS011;23318;50.966;5.284;2022-10-16T13:16:46;2.00;;;0.60;;
37459;SDS011;23318;50.966;5.284;2022-10-16T13:19:45;4.13;;;0.93;;
37459;SDS011;23318;50.966;5.284;2022-10-16T13:22:43;1.52;;;0.63;;
37459;SDS011;23318;50.966;5.284;2022-10-16T13:28:05;7.50;;;2.80;;
37459;SDS011;23318;50.966;5.284;2022-10-16T13:33:15;3.08;;;0.70;;
37459;SDS011;23318;50.966;5.284;2022-10-16T13:36:01;4.40;;;0.80;;
37459;SDS011;23318;50.966;5.284;2022-10-16T13:38:29;4.70;;;0.80;;
37459;SDS011;23318;50.966;5.284;2022-10-16T13:43:27;1.50;;;0.80;;
37459;SDS011;23318;50.966;5.284;2022-10-16T13:45:57;1.80;;;0.60;;
37459;SDS011;23318;50.966;5.284;2022-10-16T13:48:25;3.53;;;0.73;;
37459;SDS011;23318;50.966;5.284;2022-10-16T13:53:30;1.25;;;0.63;;
37459;SDS011;23318;50.966;5.284;2022-10-16T13:55:58;3.83;;;0.70;;
37459;SDS011;23318;50.966;5.284;2022-10-16T13:58:27;2.40;;;0.60;;
37459;SDS011;23318;50.966;5.284;2022-10-16T14:00:57;5.00;;;0.70;;
37459;SDS011;23318;50.966;5.284;2022-10-16T14:03:25;1.83;;;0.75;;
37459;SDS011;23318;50.966;5.284;2022-10-16T14:05:53;2.97;;;1.02;;
37459;SDS011;23318;50.966;5.284;2022-10-16T14:08:22;3.50;;;0.80;;
37459;SDS011;23318;50.966;5.284;2022-10-16T14:10:50;1.20;;;0.52;;
37459;SDS011;23318;50.966;5.284;2022-10-16T14:13:20;4.30;;;0.70;;
37459;SDS011;23318;50.966;5.284;2022-10-16T14:15:59;6.57;;;0.90;;
37459;SDS011;23318;50.966;5.284;2022-10-16T14:18:31;6.78;;;1.35;;
37459;SDS011;23318;50.966;5.284;2022-10-16T14:21:02;3.25;;;0.80;;
37459;SDS011;23318;50.966;5.284;2022-10-16T14:23:35;2.05;;;0.47;;
37459;SDS011;23318;50.966;5.284;2022-10-16T14:28:34;5.13;;;0.70;;
37459;SDS011;23318;50.966;5.284;2022-10-16T14:31:02;2.45;;;1.02;;
37459;SDS011;23318;50.966;5.284;2022-10-16T14:33:58;2.08;;;0.82;;
37459;SDS011;23318;50.966;5.284;2022-10-16T14:36:25;4.88;;;1.00;;
37459;SDS011;23318;50.966;5.284;2022-10-16T14:38:59;3.95;;;0.80;;
37459;SDS011;23318;50.966;5.284;2022-10-16T14:41:31;2.22;;;0.68;;
37459;SDS011;23318;50.966;5.284;2022-10-16T14:44:05;5.63;;;0.60;;
37459;SDS011;23318;50.966;5.284;2022-10-16T14:46:35;2.00;;;0.65;;
37459;SDS011;23318;50.966;5.284;2022-10-16T14:49:03;2.67;;;0.80;;
37459;SDS011;23318;50.966;5.284;2022-10-16T14:54:02;3.72;;;0.63;;
37459;SDS011;23318;50.966;5.284;2022-10-16T14:56:29;2.38;;;0.70;;
37459;SDS011;23318;50.966;5.284;2022-10-16T14:58:57;6.15;;;0.80;;
37459;SDS011;23318;50.966;5.284;2022-10-16T15:01:23;5.82;;;0.77;;
37459;SDS011;23318;50.966;5.284;2022-10-16T15:03:49;1.88;;;0.63;;
37459;SDS011;23318;50.966;5.284;2022-10-16T15:06:17;4.82;;;0.80;;
37459;SDS011;23318;50.966;5.284;2022-10-16T15:08:42;11.35;;;1.95;;
37459;SDS011;23318;50.966;5.284;2022-10-16T15:11:12;6.93;;;1.40;;
37459;SDS011;23318;50.966;5.284;2022-10-16T15:13:39;2.45;;;1.17;;
37459;SDS011;23318;50.966;5.284;2022-10-16T15:16:07;1.52;;;0.68;;
37459;SDS011;23318;50.966;5.284;2022-10-16T15:18:35;2.45;;;1.00;;
37459;SDS011;23318;50.966;5.284;2022-10-16T15:21:01;3.65;;;1.20;;
37459;SDS011;23318;50.966;5.284;2022-10-16T15:23:27;3.00;;;0.77;;
37459;SDS011;23318;50.966;5.284;2022-10-16T15:25:53;4.47;;;1.15;;
37459;SDS011;23318;50.966;5.284;2022-10-16T15:28:20;7.30;;;0.70;;
37459;SDS011;23318;50.966;5.284;2022-10-16T15:30:51;3.85;;;0.73;;
37459;SDS011;23318;50.966;5.284;2022-10-16T15:33:19;3.28;;;0.75;;
37459;SDS011;23318;50.966;5.284;2022-10-16T15:35:48;3.70;;;1.08;;
37459;SDS011;23318;50.966;5.284;2022-10-16T15:38:15;4.32;;;1.10;;
37459;SDS011;23318;50.966;5.284;2022-10-16T15:40:41;3.00;;;0.73;;
37459;SDS011;23318;50.966;5.284;2022-10-16T15:43:07;3.97;;;1.00;;
37459;SDS011;23318;50.966;5.284;2022-10-16T15:45:33;3.65;;;0.95;;
37459;SDS011;23318;50.966;5.284;2022-10-16T15:47:59;5.70;;;1.15;;
37459;SDS011;23318;50.966;5.284;2022-10-16T15:50:25;5.00;;;1.00;;
37459;SDS011;23318;50.966;5.284;2022-10-16T15:52:51;3.70;;;0.82;;
37459;SDS011;23318;50.966;5.284;2022-10-16T15:55:17;3.72;;;0.98;;
37459;SDS011;23318;50.966;5.284;2022-10-16T15:57:43;2.67;;;0.93;;
37459;SDS011;23318;50.966;5.284;2022-10-16T16:00:14;2.45;;;1.23;;
37459;SDS011;23318;50.966;5.284;2022-10-16T16:02:41;5.20;;;1.10;;
37459;SDS011;23318;50.966;5.284;2022-10-16T16:05:08;4.88;;;1.10;;
37459;SDS011;23318;50.966;5.284;2022-10-16T16:07:36;7.25;;;0.85;;
37459;SDS011;23318;50.966;5.284;2022-10-16T16:10:02;5.47;;;1.17;;
37459;SDS011;23318;50.966;5.284;2022-10-16T16:12:31;6.47;;;0.90;;
37459;SDS011;23318;50.966;5.284;2022-10-16T16:14:57;6.55;;;1.30;;
37459;SDS011;23318;50.966;5.284;2022-10-16T16:17:23;7.55;;;1.60;;
37459;SDS011;23318;50.966;5.284;2022-10-16T16:19:49;9.38;;;1.60;;
37459;SDS011;23318;50.966;5.284;2022-10-16T16:22:15;7.43;;;1.20;;
37459;SDS011;23318;50.966;5.284;2022-10-16T16:24:40;5.47;;;1.38;;
37459;SDS011;23318;50.966;5.284;2022-10-16T16:27:06;3.75;;;1.13;;
37459;SDS011;23318;50.966;5.284;2022-10-16T16:29:32;2.97;;;1.10;;
37459;SDS011;23318;50.966;5.284;2022-10-16T16:31:58;4.10;;;0.90;;
37459;SDS011;23318;50.966;5.284;2022-10-16T16:34:25;4.15;;;1.10;;
37459;SDS011;23318;50.966;5.284;2022-10-16T16:36:52;8.52;;;2.60;;
37459;SDS011;23318;50.966;5.284;2022-10-16T16:39:18;4.07;;;1.42;;
37459;SDS011;23318;50.966;5.284;2022-10-16T16:41:44;8.02;;;1.40;;
37459;SDS011;23318;50.966;5.284;2022-10-16T16:44:12;7.60;;;1.23;;
37459;SDS011;23318;50.966;5.284;2022-10-16T16:46:40;3.78;;;1.27;;
37459;SDS011;23318;50.966;5.284;2022-10-16T16:49:08;4.85;;;1.27;;
37459;SDS011;23318;50.966;5.284;2022-10-16T16:51:38;9.63;;;1.67;;
37459;SDS011;23318;50.966;5.284;2022-10-16T16:54:04;5.47;;;1.90;;
37459;SDS011;23318;50.966;5.284;2022-10-16T16:56:30;6.32;;;1.60;;